Time;durP1;ratioP1;P1;durP2;ratioP2;P2;SDS_P1;SDS_P2;PMS_P1;PMS_P2;Temp;Humidity;BMP_temperature;BMP_pressure;BME280_temperature;BME280_humidity;BME280_pressure;Samples;Min_cycle;Max_cycle;Signal;HPM_P1;HPM_P2
2023/10/06 00:02:26;;;;;;;0.68;0.68;;;;;;;8.32;97.33;98277.66;6183345;23;20061;-82
2023/10/06 00:04:54;;;;;;;0.70;0.70;;;;;;;8.32;97.17;98263.41;6183953;23;20021;-82
2023/10/06 00:07:23;;;;;;;0.50;0.50;;;;;;;8.33;97.36;98254.25;6183279;23;20025;-81
2023/10/06 00:09:53;;;;;;;0.70;0.70;;;;;;;8.34;97.25;98256.72;6183328;23;20021;-81
2023/10/06 00:12:26;;;;;;;0.70;0.70;;;;;;;8.35;97.14;98254.84;6183438;23;20025;-81
2023/10/06 00:14:53;;;;;;;0.65;0.65;;;;;;;8.39;97.07;98256.81;6184216;23;20024;-83
2023/10/06 00:17:21;;;;;;;0.60;0.60;;;;;;;8.43;96.90;98257.97;6184635;23;20025;-83
2023/10/06 00:19:55;;;;;;;0.60;0.60;;;;;;;8.45;96.42;98260.38;6183053;23;20031;-80
2023/10/06 00:22:26;;;;;;;0.70;0.70;;;;;;;8.50;96.13;98257.75;6183339;23;20025;-82
2023/10/06 00:24:59;;;;;;;0.60;0.60;;;;;;;8.50;95.98;98236.25;6184505;23;20043;-81
2023/10/06 00:27:29;;;;;;;0.60;0.60;;;;;;;8.54;95.88;98250.03;6183771;23;20021;-82
2023/10/06 00:29:57;;;;;;;0.70;0.70;;;;;;;8.54;95.72;98239.25;6181651;23;20353;-82
2023/10/06 00:32:28;;;;;;;0.60;0.60;;;;;;;8.52;95.82;98238.69;6181936;23;20195;-82
2023/10/06 00:35:11;;;;;;;0.70;0.70;;;;;;;8.52;95.85;98236.81;6183278;23;20368;-82
2023/10/06 00:37:40;;;;;;;0.60;0.60;;;;;;;8.51;96.05;98240.56;6183233;23;20528;-82
2023/10/06 00:40:10;;;;;;;0.70;0.70;;;;;;;8.50;96.00;98224.69;6182601;23;20029;-82
2023/10/06 00:42:38;;;;;;;0.60;0.60;;;;;;;8.48;96.11;98224.91;6183338;23;20531;-82
2023/10/06 00:45:08;;;;;;;0.60;0.60;;;;;;;8.48;96.26;98206.09;6182776;23;20028;-81
2023/10/06 00:47:38;;;;;;;0.60;0.60;;;;;;;8.48;96.08;98205.28;6184642;23;20024;-82
2023/10/06 00:50:10;;;;;;;0.60;0.60;;;;;;;8.47;96.15;98193.72;6184956;23;20029;-82
2023/10/06 00:52:40;;;;;;;0.60;0.60;;;;;;;8.48;96.23;98192.66;6185555;23;20025;-81
2023/10/06 00:55:11;;;;;;;0.60;0.60;;;;;;;8.48;96.19;98199.91;6159123;23;20021;-82
2023/10/06 00:57:40;;;;;;;0.60;0.60;;;;;;;8.48;96.16;98206.09;6185221;23;20475;-83
2023/10/06 01:00:21;;;;;;;0.70;0.70;;;;;;;8.50;96.06;98181.66;6183811;23;20043;-83
2023/10/06 01:02:49;;;;;;;0.70;0.70;;;;;;;8.50;95.80;98193.22;6184959;23;20327;-83
2023/10/06 01:05:21;;;;;;;0.70;0.70;;;;;;;8.49;95.70;98191.59;6183469;23;20056;-82
2023/10/06 01:07:51;;;;;;;0.60;0.60;;;;;;;8.48;96.13;98184.59;6184677;23;20441;-82
2023/10/06 01:10:27;;;;;;;0.60;0.60;;;;;;;8.49;96.56;98177.34;6183347;23;20021;-83
2023/10/06 01:13:04;;;;;;;0.70;0.70;;;;;;;8.48;96.72;98173.03;6183913;23;20024;-83
2023/10/06 01:15:45;;;;;;;0.60;0.60;;;;;;;8.46;96.78;98170.59;6183422;23;20032;-83
2023/10/06 01:18:20;;;;;;;0.60;0.60;;;;;;;8.43;96.98;98166.53;6183210;23;20031;-83
2023/10/06 01:20:48;;;;;;;0.70;0.70;;;;;;;8.43;97.02;98160.31;6185179;23;20060;-82
2023/10/06 01:23:27;;;;;;;0.60;0.60;;;;;;;8.42;97.28;98158.72;6183315;23;20028;-83
2023/10/06 01:25:56;;;;;;;0.60;0.60;;;;;;;8.40;97.62;98155.44;6185020;23;20027;-83
2023/10/06 01:28:24;;;;;;;0.70;0.70;;;;;;;8.41;97.81;98149.03;6185367;23;20112;-83
2023/10/06 01:30:51;;;;;;;0.57;0.57;;;;;;;8.40;97.87;98147.38;6184816;23;20356;-81
2023/10/06 01:33:18;;;;;;;0.60;0.60;;;;;;;8.37;98.30;98139.81;6184537;23;20049;-83
2023/10/06 01:35:45;;;;;;;0.70;0.70;;;;;;;8.39;98.57;98148.44;6184787;23;20028;-82
2023/10/06 01:38:22;;;;;;;0.60;0.60;;;;;;;8.39;98.61;98143.06;6184444;23;20534;-82
2023/10/06 01:40:53;;;;;;;0.70;0.70;;;;;;;8.34;98.86;98134.94;6183384;23;20021;-82
2023/10/06 01:43:29;;;;;;;0.60;0.60;;;;;;;8.32;99.13;98127.09;6159360;23;20021;-82
2023/10/06 01:45:59;;;;;;;0.70;0.70;;;;;;;8.34;99.31;98118.78;6184621;23;20025;-81
2023/10/06 01:48:31;;;;;;;0.70;0.70;;;;;;;8.31;99.61;98124.69;6183607;23;20123;-83
2023/10/06 01:50:58;;;;;;;0.70;0.70;;;;;;;8.30;100.00;98117.66;6185385;23;20421;-82
2023/10/06 01:53:32;;;;;;;0.60;0.60;;;;;;;8.27;100.00;98112.78;6183480;23;20048;-83
2023/10/06 01:56:07;;;;;;;0.70;0.70;;;;;;;8.12;100.00;98086.56;6184622;23;20021;-82
2023/10/06 01:58:36;;;;;;;0.63;0.63;;;;;;;8.10;100.00;98084.13;6183040;23;20056;-82
2023/10/06 02:01:05;;;;;;;0.70;0.70;;;;;;;8.13;100.00;98093.56;6182651;23;20025;-82
2023/10/06 02:03:38;;;;;;;0.70;0.70;;;;;;;8.16;100.00;98101.94;6184406;23;20048;-83
2023/10/06 02:06:12;;;;;;;0.63;0.63;;;;;;;8.07;100.00;98079.22;6184285;23;20520;-83
2023/10/06 02:08:43;;;;;;;0.70;0.70;;;;;;;8.13;100.00;98090.88;6184507;23;20091;-82
2023/10/06 02:11:12;;;;;;;0.60;0.60;;;;;;;8.11;100.00;98080.38;6182775;23;20021;-81
2023/10/06 02:13:39;;;;;;;0.70;0.70;;;;;;;8.09;100.00;98073.63;6182930;23;20077;-83
2023/10/06 02:16:08;;;;;;;0.70;0.70;;;;;;;8.17;100.00;98082.03;6182729;23;20037;-81
2023/10/06 02:18:40;;;;;;;0.60;0.60;;;;;;;8.16;100.00;98072.38;6184261;23;20051;-82
2023/10/06 02:21:11;;;;;;;0.70;0.70;;;;;;;8.02;100.00;98057.69;6183990;23;20021;-82
2023/10/06 02:23:40;;;;;;;0.70;0.70;;;;;;;8.04;100.00;98069.00;6182874;23;20423;-82
2023/10/06 02:26:13;;;;;;;0.60;0.60;;;;;;;7.98;100.00;98051.19;6183984;23;20048;-82
2023/10/06 02:28:44;;;;;;;0.70;0.70;;;;;;;8.02;100.00;98058.47;6182747;23;20029;-82
2023/10/06 02:31:11;;;;;;;0.70;0.70;;;;;;;8.08;100.00;98063.91;6183809;23;20032;-82
2023/10/06 02:33:39;;;;;;;0.70;0.70;;;;;;;8.00;100.00;98043.66;6184414;23;20024;-83
2023/10/06 02:36:17;;;;;;;0.70;0.70;;;;;;;8.07;100.00;98055.03;6183896;23;20415;-82
2023/10/06 02:38:46;;;;;;;0.60;0.60;;;;;;;8.10;100.00;98053.72;6182824;23;20032;-81
2023/10/06 02:41:21;;;;;;;0.60;0.60;;;;;;;8.09;100.00;98052.13;6183721;23;20020;-81
2023/10/06 02:43:50;;;;;;;0.63;0.63;;;;;;;8.10;100.00;98037.59;6184284;23;20404;-83
2023/10/06 02:46:22;;;;;;;0.63;0.63;;;;;;;8.11;100.00;98040.06;6183898;23;20083;-83
2023/10/06 02:48:49;;;;;;;0.60;0.60;;;;;;;8.03;100.00;98027.88;6182376;23;20529;-82
2023/10/06 02:51:20;;;;;;;0.70;0.70;;;;;;;8.06;100.00;98033.81;6182286;23;20061;-83
2023/10/06 02:53:51;;;;;;;0.63;0.63;;;;;;;8.12;100.00;98032.81;6182978;23;20079;-82
2023/10/06 02:56:21;;;;;;;0.70;0.70;;;;;;;8.18;100.00;98040.69;6184158;23;20465;-83
2023/10/06 02:58:50;;;;;;;0.70;0.70;;;;;;;8.08;100.00;98018.22;6183636;23;20087;-82
2023/10/06 03:01:18;;;;;;;0.60;0.60;;;;;;;8.09;100.00;98023.38;6182317;23;20116;-82
2023/10/06 03:03:46;;;;;;;0.70;0.70;;;;;;;8.16;100.00;98045.50;6182668;23;20029;-82
2023/10/06 03:06:17;;;;;;;0.60;0.60;;;;;;;8.15;100.00;98022.38;6183625;23;20021;-83
2023/10/06 03:08:44;;;;;;;0.60;0.60;;;;;;;8.04;100.00;98007.19;6186942;23;20080;-83
2023/10/06 03:11:22;;;;;;;0.70;0.70;;;;;;;8.13;100.00;98021.81;6186818;23;20048;-83
2023/10/06 03:13:54;;;;;;;0.70;0.70;;;;;;;8.13;100.00;98016.44;6182501;23;20025;-83
2023/10/06 03:16:25;;;;;;;0.65;0.65;;;;;;;8.14;100.00;98018.03;6181858;23;20461;-82
2023/10/06 03:18:57;;;;;;;0.60;0.60;;;;;;;8.13;100.00;98015.63;6182618;23;20403;-82
2023/10/06 03:21:24;;;;;;;0.70;0.70;;;;;;;8.15;100.00;98010.78;6157666;23;20033;-82
2023/10/06 03:24:05;;;;;;;0.70;0.70;;;;;;;8.16;100.00;98001.69;6183738;23;20021;-82
2023/10/06 03:26:36;;;;;;;0.60;0.60;;;;;;;8.15;100.00;98010.78;6157656;23;20496;-83
2023/10/06 03:29:11;;;;;;;0.70;0.70;;;;;;;8.17;100.00;97996.03;6181918;23;20061;-82
2023/10/06 03:31:44;;;;;;;0.60;0.60;;;;;;;8.18;100.00;98000.38;6182218;23;20032;-83
2023/10/06 03:34:20;;;;;;;0.70;0.70;;;;;;;8.22;100.00;97993.41;6183445;23;20360;-82
2023/10/06 03:36:52;;;;;;;0.60;0.60;;;;;;;8.24;100.00;97991.28;6184016;23;20017;-83
2023/10/06 03:39:27;;;;;;;0.60;0.60;;;;;;;8.29;100.00;97984.34;6181737;23;20072;-83
2023/10/06 03:42:01;;;;;;;0.60;0.60;;;;;;;8.30;100.00;97983.25;6182888;23;20464;-82
2023/10/06 03:44:30;;;;;;;0.60;0.60;;;;;;;8.31;100.00;97985.69;6182089;23;20507;-82
2023/10/06 03:47:00;;;;;;;0.68;0.68;;;;;;;8.31;100.00;97968.75;6182622;23;20047;-82
2023/10/06 03:49:33;;;;;;;0.60;0.60;;;;;;;8.32;100.00;97970.38;6157361;23;20101;-83
2023/10/06 03:52:09;;;;;;;0.70;0.70;;;;;;;8.28;100.00;97966.56;6181691;23;20025;-83
2023/10/06 03:54:37;;;;;;;0.70;0.70;;;;;;;8.27;100.00;97973.03;6182117;23;20024;-83
2023/10/06 03:57:05;;;;;;;0.70;0.70;;;;;;;8.24;100.00;97964.38;6181832;23;20075;-82
2023/10/06 03:59:35;;;;;;;0.70;0.70;;;;;;;8.24;100.00;97977.81;6183428;23;20112;-82
2023/10/06 04:02:08;;;;;;;0.70;0.70;;;;;;;8.20;100.00;97960.59;6181884;23;20025;-82
2023/10/06 04:04:39;;;;;;;0.70;0.70;;;;;;;8.22;100.00;97966.50;6182938;23;20029;-82
2023/10/06 04:07:06;;;;;;;0.60;0.60;;;;;;;8.26;100.00;97956.09;6182624;23;20476;-82
2023/10/06 04:09:33;;;;;;;0.70;0.70;;;;;;;8.30;100.00;97961.75;6183117;23;20028;-83
2023/10/06 04:12:04;;;;;;;0.65;0.65;;;;;;;8.30;100.00;97954.50;6182544;23;20021;-83
2023/10/06 04:14:32;;;;;;;0.70;0.70;;;;;;;8.32;100.00;97955.06;6182538;23;20488;-82
2023/10/06 04:17:05;;;;;;;0.60;0.60;;;;;;;8.34;100.00;97944.06;6181589;23;20452;-82
2023/10/06 04:19:34;;;;;;;0.70;0.70;;;;;;;8.37;100.00;97955.09;6183520;23;20099;-82
2023/10/06 04:22:03;;;;;;;0.70;0.70;;;;;;;8.39;100.00;97944.94;6182946;23;20021;-81
2023/10/06 04:24:30;;;;;;;0.60;0.60;;;;;;;8.41;100.00;97947.38;6182947;23;20532;-82
2023/10/06 04:26:58;;;;;;;0.70;0.70;;;;;;;8.42;100.00;97940.91;6183391;23;20079;-83
2023/10/06 04:29:25;;;;;;;0.70;0.70;;;;;;;8.45;100.00;97935.81;6183048;23;20025;-81
2023/10/06 04:31:53;;;;;;;0.70;0.70;;;;;;;8.47;100.00;97935.59;6181348;23;20052;-82
2023/10/06 04:34:22;;;;;;;0.60;0.60;;;;;;;8.45;100.00;97932.34;6182151;23;20109;-83
2023/10/06 04:36:51;;;;;;;0.70;0.70;;;;;;;8.48;100.00;97937.19;6183419;23;20051;-81
2023/10/06 04:39:20;;;;;;;0.70;0.70;;;;;;;8.50;100.00;97928.88;6182532;23;20032;-82
2023/10/06 04:41:47;;;;;;;0.65;0.65;;;;;;;8.51;100.00;97931.31;6182909;23;20032;-83
2023/10/06 04:44:15;;;;;;;0.70;0.70;;;;;;;8.55;100.00;97928.91;6181919;23;20116;-83
2023/10/06 04:46:42;;;;;;;0.60;0.60;;;;;;;8.58;100.00;97929.22;6157085;23;20342;-83
2023/10/06 04:49:09;;;;;;;0.60;0.60;;;;;;;8.59;100.00;97933.53;6182365;23;20025;-83
2023/10/06 04:51:36;;;;;;;0.68;0.68;;;;;;;8.67;100.00;97933.03;6180941;23;20462;-82
2023/10/06 04:54:07;;;;;;;0.70;0.70;;;;;;;8.66;100.00;97926.06;6182798;23;20461;-82
2023/10/06 04:56:35;;;;;;;0.60;0.60;;;;;;;8.71;100.00;97930.66;6182898;23;20330;-83
2023/10/06 04:59:02;;;;;;;0.70;0.70;;;;;;;8.75;100.00;97928.25;6182848;23;20056;-83
2023/10/06 05:01:30;;;;;;;0.70;0.70;;;;;;;8.73;100.00;97908.88;6182657;23;20021;-83
2023/10/06 05:03:58;;;;;;;0.70;0.70;;;;;;;8.77;100.00;97918.88;6182999;23;20032;-82
2023/10/06 05:06:25;;;;;;;0.70;0.70;;;;;;;8.82;100.00;97907.31;6182659;23;20052;-83
2023/10/06 05:08:52;;;;;;;0.70;0.70;;;;;;;8.84;100.00;97907.88;6156938;23;20025;-84
2023/10/06 05:11:20;;;;;;;0.70;0.70;;;;;;;8.79;100.00;97900.59;6182507;23;20121;-84
2023/10/06 05:13:52;;;;;;;0.70;0.70;;;;;;;8.68;100.00;97897.03;6183195;23;20516;-84
2023/10/06 05:16:22;;;;;;;0.60;0.60;;;;;;;8.56;100.00;97896.41;6182750;23;20433;-83
2023/10/06 05:18:53;;;;;;;0.60;0.60;;;;;;;8.44;100.00;97896.56;6180670;23;20465;-83
2023/10/06 05:21:21;;;;;;;0.70;0.70;;;;;;;8.51;100.00;97896.38;6182079;23;20045;-85
2023/10/06 05:23:48;;;;;;;0.70;0.70;;;;;;;8.52;100.00;97881.03;6183142;23;20024;-82
2023/10/06 05:26:15;;;;;;;0.70;0.70;;;;;;;8.70;100.00;97879.81;6186155;23;20085;-84
2023/10/06 05:28:44;;;;;;;0.70;0.70;;;;;;;8.89;100.00;97899.84;6187760;23;20024;-84
2023/10/06 05:31:13;;;;;;;0.65;0.65;;;;;;;8.95;100.00;97896.09;6186730;23;20530;-83
2023/10/06 05:33:40;;;;;;;0.70;0.70;;;;;;;9.24;100.00;97898.38;6185199;23;20021;-83
2023/10/06 05:36:12;;;;;;;0.70;0.70;;;;;;;9.28;100.00;97878.75;6184745;23;20079;-84
2023/10/06 05:38:47;;;;;;;0.70;0.70;;;;;;;9.31;99.96;97883.59;6185399;23;20334;-82
2023/10/06 05:41:15;;;;;;;0.60;0.60;;;;;;;9.25;100.00;97886.56;6184212;23;20040;-82
2023/10/06 05:43:43;;;;;;;0.70;0.70;;;;;;;9.22;100.00;97881.72;6184918;23;20043;-82
2023/10/06 05:46:11;;;;;;;0.60;0.60;;;;;;;9.22;100.00;97881.72;6182713;23;20025;-83
2023/10/06 05:48:39;;;;;;;0.60;0.60;;;;;;;9.25;100.00;97875.78;6184572;23;20051;-83
2023/10/06 05:51:14;;;;;;;0.70;0.70;;;;;;;9.30;99.77;97879.31;6184661;23;20102;-83
2023/10/06 05:53:43;;;;;;;0.70;0.70;;;;;;;9.35;99.47;97862.38;6182801;23;20361;-83
2023/10/06 05:56:12;;;;;;;0.70;0.70;;;;;;;9.42;99.07;97871.00;6184571;23;20283;-83
2023/10/06 05:58:40;;;;;;;0.60;0.60;;;;;;;9.41;98.48;97868.56;6184648;23;20529;-83
2023/10/06 06:01:18;;;;;;;0.50;0.50;;;;;;;9.44;98.23;97862.66;6182948;23;20052;-84
2023/10/06 06:03:46;;;;;;;0.70;0.70;;;;;;;9.54;97.66;97868.91;6184691;23;20021;-84
2023/10/06 06:06:16;;;;;;;0.60;0.60;;;;;;;9.52;97.27;97865.66;6184297;23;20044;-83
2023/10/06 06:08:47;;;;;;;0.70;0.70;;;;;;;9.44;97.23;97852.69;6182850;23;20056;-83
2023/10/06 06:11:16;;;;;;;0.60;0.60;;;;;;;9.48;97.45;97864.56;6184583;23;20112;-84
2023/10/06 06:13:47;;;;;;;0.60;0.60;;;;;;;9.45;97.24;97850.81;6183330;23;20360;-83
2023/10/06 06:16:25;;;;;;;0.60;0.60;;;;;;;9.42;97.21;97862.94;6184755;23;20028;-83
2023/10/06 06:18:53;;;;;;;0.60;0.60;;;;;;;9.39;97.24;97859.94;6184829;23;20028;-84
2023/10/06 06:21:24;;;;;;;0.70;0.70;;;;;;;9.41;97.20;97852.41;6189272;23;20025;-83
2023/10/06 06:23:57;;;;;;;0.68;0.68;;;;;;;9.41;97.02;97842.44;6188734;23;20068;-84
2023/10/06 06:26:25;;;;;;;0.60;0.60;;;;;;;9.42;96.77;97840.56;6187791;23;20045;-84
2023/10/06 06:28:52;;;;;;;0.60;0.60;;;;;;;9.52;96.45;97835.19;6162468;23;20443;-84
2023/10/06 06:31:21;;;;;;;0.60;0.60;;;;;;;9.63;96.05;97842.25;6180225;23;20357;-83
2023/10/06 06:33:55;;;;;;;0.70;0.70;;;;;;;9.70;95.40;97836.59;6182723;23;20404;-82
2023/10/06 06:36:26;;;;;;;0.60;0.60;;;;;;;9.77;94.66;97831.72;6183125;23;20052;-85
2023/10/06 06:38:54;;;;;;;0.70;0.70;;;;;;;9.82;93.86;97826.34;6186835;23;20020;-85
2023/10/06 06:41:21;;;;;;;0.60;0.60;;;;;;;9.94;93.58;97816.13;6184951;23;20265;-84
2023/10/06 06:43:49;;;;;;;0.60;0.60;;;;;;;10.18;92.99;97815.59;6182935;23;20021;-84
2023/10/06 06:46:16;;;;;;;0.70;0.70;;;;;;;10.33;91.93;97802.13;6183739;23;20036;-82
2023/10/06 06:48:44;;;;;;;0.60;0.60;;;;;;;10.35;90.82;97810.72;6183125;23;20396;-82
2023/10/06 06:51:11;;;;;;;0.60;0.60;;;;;;;10.14;90.60;97809.13;6183698;23;20025;-84
2023/10/06 06:53:39;;;;;;;0.60;0.60;;;;;;;9.87;91.26;97812.06;6189103;23;20028;-82
2023/10/06 06:56:10;;;;;;;0.60;0.60;;;;;;;9.79;91.77;97799.94;6189023;23;20032;-83
2023/10/06 06:58:38;;;;;;;0.60;0.60;;;;;;;9.68;92.00;97799.13;6182012;23;20068;-82
2023/10/06 07:01:14;;;;;;;0.60;0.60;;;;;;;9.58;92.36;97792.94;6182341;23;20025;-83
2023/10/06 07:03:42;;;;;;;0.60;0.60;;;;;;;9.52;93.17;97800.19;6182956;23;20031;-83
2023/10/06 07:06:16;;;;;;;0.60;0.60;;;;;;;9.46;93.78;97790.50;6182313;23;20020;-83
2023/10/06 07:08:49;;;;;;;0.60;0.60;;;;;;;9.43;93.92;97785.63;6182676;23;20039;-83
2023/10/06 07:11:20;;;;;;;0.60;0.60;;;;;;;9.45;94.17;97775.41;6182073;23;20495;-82
2023/10/06 07:13:55;;;;;;;0.70;0.70;;;;;;;9.48;93.94;97781.06;6180273;23;20017;-83
2023/10/06 07:16:24;;;;;;;0.60;0.60;;;;;;;9.52;94.06;97770.56;6182353;23;20027;-84
2023/10/06 07:18:53;;;;;;;0.60;0.60;;;;;;;9.49;93.74;97777.28;6182429;23;20035;-82
2023/10/06 07:21:22;;;;;;;0.68;0.68;;;;;;;9.37;93.71;97760.59;6180556;23;20092;-82
2023/10/06 07:23:52;;;;;;;0.70;0.70;;;;;;;9.40;94.18;97770.03;6183331;23;20025;-82
2023/10/06 07:26:19;;;;;;;0.63;0.63;;;;;;;9.30;94.48;97760.84;6184562;23;20403;-81
2023/10/06 07:28:51;;;;;;;0.70;0.70;;;;;;;9.37;94.80;97771.38;6185207;23;20108;-82
2023/10/06 07:31:19;;;;;;;0.70;0.70;;;;;;;9.29;95.14;97763.78;6180172;23;20021;-83
2023/10/06 07:33:54;;;;;;;0.60;0.60;;;;;;;9.22;95.60;97763.25;6182977;23;20169;-82
2023/10/06 07:36:23;;;;;;;;;;;;;;;9.23;96.57;97762.16;6181308;23;20025;-82
2023/10/06 07:38:50;;;;;;;0.60;0.60;;;;;;;9.06;97.42;97738.16;6180982;23;19920;-82
2023/10/06 07:41:18;;;;;;;0.70;0.70;;;;;;;9.15;97.79;97750.03;6181286;23;20029;-82
2023/10/06 07:43:46;;;;;;;0.70;0.70;;;;;;;9.24;97.96;97755.69;6181899;23;20368;-82
2023/10/06 07:46:15;;;;;;;0.70;0.70;;;;;;;9.22;97.82;97747.09;6182545;23;20021;-82
2023/10/06 07:48:46;;;;;;;0.70;0.70;;;;;;;9.27;97.19;97739.03;6181752;23;20448;-81
2023/10/06 07:51:14;;;;;;;0.65;0.65;;;;;;;9.44;97.18;97750.34;6181338;23;20028;-80
2023/10/06 07:53:44;;;;;;;0.70;0.70;;;;;;;9.68;96.71;97747.16;6179963;23;20112;-81
2023/10/06 07:56:13;;;;;;;0.70;0.70;;;;;;;9.84;95.75;97750.66;6179396;23;20059;-81
2023/10/06 07:58:42;;;;;;;0.70;0.70;;;;;;;9.89;94.52;97739.88;6181880;23;20021;-80
2023/10/06 08:01:14;;;;;;;0.70;0.70;;;;;;;10.03;93.77;97738.25;6181662;23;20486;-80
2023/10/06 08:03:42;;;;;;;0.70;0.70;;;;;;;10.13;92.18;97734.72;6182107;23;20080;-78
2023/10/06 08:06:13;;;;;;;0.70;0.70;;;;;;;10.29;91.31;97730.94;6182231;23;20407;-81
2023/10/06 08:08:41;;;;;;;0.70;0.70;;;;;;;10.61;90.16;97740.56;6181262;23;20037;-81
2023/10/06 08:11:09;;;;;;;0.70;0.70;;;;;;;10.68;89.25;97746.44;6179886;23;20032;-81
2023/10/06 08:13:38;;;;;;;0.70;0.70;;;;;;;10.71;87.74;97723.50;6183126;23;20068;-82
2023/10/06 08:16:11;;;;;;;0.70;0.70;;;;;;;10.75;86.76;97729.97;6183457;23;20364;-81
2023/10/06 08:18:39;;;;;;;0.70;0.70;;;;;;;10.79;86.88;97729.16;6183657;23;20049;-82
2023/10/06 08:21:07;;;;;;;0.60;0.60;;;;;;;10.70;86.20;97711.91;6181871;23;20108;-81
2023/10/06 08:23:35;;;;;;;0.60;0.60;;;;;;;10.68;86.07;97734.84;6181765;23;20025;-81
2023/10/06 08:26:08;;;;;;;0.60;0.60;;;;;;;10.63;86.39;97732.97;6182723;23;20075;-81
2023/10/06 08:28:35;;;;;;;0.70;0.70;;;;;;;10.61;86.65;97729.78;6181176;23;20389;-81
2023/10/06 08:31:03;;;;;;;0.60;0.60;;;;;;;10.53;86.47;97733.84;6181959;23;20029;-81
2023/10/06 08:33:31;;;;;;;0.60;0.60;;;;;;;10.48;86.92;97720.38;6181599;23;20028;-80
2023/10/06 08:36:00;;;;;;;0.60;0.60;;;;;;;10.50;87.28;97717.38;6182105;23;20140;-81
2023/10/06 08:38:29;;;;;;;0.60;0.60;;;;;;;10.41;87.81;97722.56;6179731;23;20052;-81
2023/10/06 08:41:01;;;;;;;0.60;0.60;;;;;;;10.39;88.28;97728.22;6182238;23;20037;-80
2023/10/06 08:43:31;;;;;;;0.60;0.60;;;;;;;10.37;88.37;97702.59;6181629;23;20075;-80
2023/10/06 08:46:01;;;;;;;0.70;0.70;;;;;;;10.42;88.48;97718.75;6181624;23;20035;-81
2023/10/06 08:48:35;;;;;;;0.60;0.60;;;;;;;10.37;88.36;97714.19;6179799;23;20021;-81
2023/10/06 08:51:07;;;;;;;0.67;0.67;;;;;;;10.41;88.44;97709.88;6180454;23;20072;-81
2023/10/06 08:53:39;;;;;;;0.60;0.60;;;;;;;10.57;88.30;97707.13;6181391;23;20055;-81
2023/10/06 08:56:06;;;;;;;0.70;0.70;;;;;;;10.78;87.88;97710.53;6181449;23;20029;-79
2023/10/06 08:58:35;;;;;;;0.60;0.60;;;;;;;10.79;86.41;97709.47;6181919;23;20174;-81
2023/10/06 09:01:06;;;;;;;0.70;0.70;;;;;;;10.80;85.85;97716.47;6180885;23;20369;-81
2023/10/06 09:03:38;;;;;;;0.70;0.70;;;;;;;10.98;85.67;97712.31;6181067;23;20041;-81
2023/10/06 09:06:07;;;;;;;0.68;0.68;;;;;;;11.08;83.42;97712.25;6181828;23;20464;-82
2023/10/06 09:08:40;;;;;;;0.70;0.70;;;;;;;11.13;81.40;97712.22;6182166;23;20080;-82
2023/10/06 09:11:08;;;;;;;0.65;0.65;;;;;;;10.96;82.06;97701.81;6183339;23;20025;-82
2023/10/06 09:13:36;;;;;;;0.60;0.60;;;;;;;10.83;83.01;97708.59;6182556;23;20021;-80
2023/10/06 09:16:06;;;;;;;0.70;0.70;;;;;;;10.80;83.84;97705.66;6181920;23;20025;-79
2023/10/06 09:18:35;;;;;;;0.60;0.60;;;;;;;10.86;84.24;97699.16;6184521;23;20021;-81
2023/10/06 09:21:16;;;;;;;0.70;0.70;;;;;;;10.96;84.01;97700.97;6184195;23;20352;-82
2023/10/06 09:23:44;;;;;;;0.70;0.70;;;;;;;11.03;82.68;97698.78;6184647;23;20051;-81
2023/10/06 09:26:13;;;;;;;0.70;0.70;;;;;;;11.38;82.00;97705.06;6182463;23;20381;-81
2023/10/06 09:28:50;;;;;;;0.70;0.70;;;;;;;11.68;80.41;97694.00;6185576;23;20032;-81
2023/10/06 09:31:44;;;;;;;0.70;0.70;;;;;;;11.51;79.63;97685.50;6183558;23;20024;-82
2023/10/06 09:34:12;;;;;;;0.70;0.70;;;;;;;11.39;80.30;97693.16;6183629;23;20028;-82
2023/10/06 09:36:43;;;;;;;0.60;0.60;;;;;;;11.33;80.58;97688.88;6182585;23;20100;-81
2023/10/06 09:39:26;;;;;;;0.60;0.60;;;;;;;11.21;81.42;97675.72;6133628;23;20051;-82
2023/10/06 09:41:54;;;;;;;0.60;0.60;;;;;;;11.08;81.43;97679.84;6183199;23;20057;-81
2023/10/06 09:44:23;;;;;;;0.60;0.60;;;;;;;10.93;82.47;97688.06;6181169;23;20028;-82
2023/10/06 09:46:54;;;;;;;0.60;0.60;;;;;;;10.58;83.97;97687.13;6184123;23;20475;-82
2023/10/06 09:49:22;;;;;;;0.70;0.70;;;;;;;10.47;86.11;97685.56;6181869;23;20405;-81
2023/10/06 09:51:52;;;;;;;1.00;1.00;;;;;;;11.22;85.59;97680.84;6183314;23;20025;-82
2023/10/06 09:54:22;;;;;;;0.80;0.80;;;;;;;12.42;80.90;97677.59;6182953;23;20483;-82
2023/10/06 09:56:54;;;;;;;0.68;0.68;;;;;;;12.04;81.58;97674.75;6182479;23;20353;-82
2023/10/06 09:59:24;;;;;;;0.70;0.70;;;;;;;11.76;83.00;97678.25;6182311;23;20404;-82
2023/10/06 10:01:51;;;;;;;0.70;0.70;;;;;;;11.63;83.89;97668.91;6179120;23;20021;-81
2023/10/06 10:04:20;;;;;;;0.70;0.70;;;;;;;11.46;83.98;97672.81;6179881;23;20025;-80
2023/10/06 10:06:47;;;;;;;0.60;0.60;;;;;;;11.42;84.09;97668.25;6182000;23;20033;-83
2023/10/06 10:09:20;;;;;;;0.60;0.60;;;;;;;11.34;83.75;97677.78;6184370;23;20021;-82
2023/10/06 10:12:00;;;;;;;0.70;0.70;;;;;;;11.23;82.56;97682.47;6183184;23;20108;-83
2023/10/06 10:14:55;;;;;;;0.70;0.70;;;;;;;11.13;81.79;97671.72;6182760;23;20029;-82
2023/10/06 10:17:39;;;;;;;0.70;0.70;;;;;;;11.05;82.18;97672.31;6156218;23;20029;-81
2023/10/06 10:20:09;;;;;;;0.60;0.60;;;;;;;11.15;81.46;97666.84;6183412;23;20116;-81
2023/10/06 10:22:38;;;;;;;0.70;0.70;;;;;;;11.14;81.31;97672.53;6184593;23;20110;-82
2023/10/06 10:25:08;;;;;;;0.60;0.60;;;;;;;11.08;81.48;97669.06;6184167;23;20021;-81
2023/10/06 10:27:38;;;;;;;0.65;0.65;;;;;;;11.04;82.25;97673.44;6184453;23;20021;-81
2023/10/06 10:30:47;;;;;;;0.70;0.70;;;;;;;10.98;82.05;97669.13;6182554;23;20036;-81
2023/10/06 10:33:20;;;;;;;0.60;0.60;;;;;;;10.91;83.15;97674.03;6182041;23;20464;-82
2023/10/06 10:36:16;;;;;;;0.50;0.50;;;;;;;10.89;83.48;97671.63;6183707;23;20056;-82
2023/10/06 10:38:44;;;;;;;0.60;0.60;;;;;;;10.80;83.89;97667.88;6183696;23;20449;-81
2023/10/06 10:41:15;;;;;;;0.70;0.70;;;;;;;10.80;84.62;97679.47;6183661;23;20035;-82
2023/10/06 10:43:45;;;;;;;0.68;0.68;;;;;;;10.75;85.42;97670.59;6158429;23;20048;-81
2023/10/06 10:46:12;;;;;;;0.60;0.60;;;;;;;10.67;86.09;97682.78;6183778;23;20420;-81
2023/10/06 10:48:49;;;;;;;0.70;0.70;;;;;;;10.70;86.67;97679.53;6184053;23;20079;-81
2023/10/06 10:51:21;;;;;;;0.70;0.70;;;;;;;10.77;87.29;97680.03;6183968;23;20025;-81
2023/10/06 10:53:52;;;;;;;0.80;0.80;;;;;;;11.02;87.57;97671.00;6182849;23;20469;-81
2023/10/06 10:56:25;;;;;;;0.70;0.70;;;;;;;11.19;87.19;97673.31;6182208;23;20121;-81
2023/10/06 10:58:53;;;;;;;0.82;0.82;;;;;;;11.57;86.10;97670.03;6183868;23;20021;-82
2023/10/06 11:01:31;;;;;;;0.70;0.70;;;;;;;11.60;85.98;97681.09;6183233;23;20035;-82
2023/10/06 11:04:21;;;;;;;0.70;0.70;;;;;;;11.64;86.20;97686.75;6183513;23;20025;-82
2023/10/06 11:06:50;;;;;;;0.70;0.70;;;;;;;11.45;86.42;97681.22;6183736;23;20017;-83
2023/10/06 11:09:39;;;;;;;0.60;0.60;;;;;;;11.20;87.71;97668.72;6181449;23;20087;-82
2023/10/06 11:12:16;;;;;;;0.70;0.70;;;;;;;11.26;87.68;97679.19;6182310;23;20032;-82
2023/10/06 11:15:03;;;;;;;0.70;0.70;;;;;;;11.16;87.65;97671.16;6182785;23;20398;-82
2023/10/06 11:17:34;;;;;;;0.70;0.70;;;;;;;11.01;88.00;97693.69;6181549;23;20025;-83
2023/10/06 11:20:27;;;;;;;0.60;0.60;;;;;;;10.87;88.39;97689.19;6183057;23;20519;-83
2023/10/06 11:22:55;;;;;;;0.68;0.68;;;;;;;10.78;88.47;97695.13;6182221;23;20031;-83
2023/10/06 11:25:27;;;;;;;0.70;0.70;;;;;;;10.59;89.07;97691.47;6182797;23;20107;-83
2023/10/06 11:28:21;;;;;;;0.70;0.70;;;;;;;10.59;89.40;97691.47;6181803;23;20025;-82
2023/10/06 11:30:49;;;;;;;0.70;0.70;;;;;;;10.62;89.64;97683.63;6178165;23;20116;-83
2023/10/06 11:33:19;;;;;;;0.70;0.70;;;;;;;10.48;89.58;97676.38;6183408;23;20047;-83
2023/10/06 11:35:47;;;;;;;0.57;0.57;;;;;;;10.58;89.56;97692.53;6186721;23;20464;-84
2023/10/06 11:38:15;;;;;;;0.60;0.60;;;;;;;10.52;89.70;97693.66;6187258;23;20044;-84
2023/10/06 11:40:44;;;;;;;0.60;0.60;;;;;;;10.48;88.47;97706.88;6182761;23;20056;-83
2023/10/06 11:43:13;;;;;;;0.60;0.60;;;;;;;10.39;88.57;97705.84;6184961;23;20040;-82
2023/10/06 11:45:43;;;;;;;0.60;0.60;;;;;;;10.34;89.09;97711.25;6181448;23;20040;-82
2023/10/06 11:48:33;;;;;;;0.60;0.60;;;;;;;10.11;88.78;97720.72;6182530;23;20132;-82
2023/10/06 11:51:06;;;;;;;0.60;0.60;;;;;;;9.73;90.16;97712.13;6183720;23;20408;-82
2023/10/06 11:53:36;;;;;;;0.70;0.70;;;;;;;9.31;92.75;97708.59;6182953;23;20025;-82
2023/10/06 11:56:08;;;;;;;0.70;0.70;;;;;;;9.18;95.35;97719.09;6183465;23;20031;-83